createdAt,value
2019-02-19T00:01:29.519Z,-2.15
2019-02-19T00:05:31.404Z,-2.21
2019-02-19T00:09:33.328Z,-2.20
2019-02-19T00:13:35.411Z,-2.23
2019-02-19T00:17:37.313Z,-2.27
2019-02-19T00:21:39.223Z,-2.32
2019-02-19T00:25:41.121Z,-2.32
2019-02-19T00:29:43.026Z,-2.40
2019-02-19T00:33:45.153Z,-2.45
2019-02-19T00:37:47.052Z,-2.48
2019-02-19T00:41:48.957Z,-2.50
2019-02-19T00:45:50.859Z,-2.52
2019-02-19T00:49:53.131Z,-2.51
2019-02-19T00:53:55.023Z,-2.54
2019-02-19T00:57:56.943Z,-2.61
2019-02-19T01:01:58.846Z,-2.64
2019-02-19T01:06:00.735Z,-2.65
2019-02-19T01:10:02.806Z,-2.68
2019-02-19T01:14:05.908Z,-2.65
2019-02-19T01:18:08.790Z,-2.67
2019-02-19T01:22:10.785Z,-2.72
2019-02-19T01:26:12.891Z,-2.71
2019-02-19T01:30:15.329Z,-2.77
2019-02-19T01:34:17.383Z,-2.79
2019-02-19T01:38:19.383Z,-2.81
2019-02-19T01:42:21.360Z,-2.79
2019-02-19T01:46:24.080Z,-2.79
2019-02-19T01:50:26.014Z,-2.85
2019-02-19T01:54:27.924Z,-2.89
2019-02-19T01:58:30.804Z,-2.90
2019-02-19T02:02:32.688Z,-2.93
2019-02-19T02:06:34.626Z,-2.93
2019-02-19T02:10:36.531Z,-2.93
2019-02-19T02:14:38.438Z,-2.94
2019-02-19T02:18:40.426Z,-3.00
2019-02-19T02:22:42.459Z,-3.01
2019-02-19T02:26:44.534Z,-3.02
2019-02-19T02:30:46.567Z,-3.04
2019-02-19T02:34:48.512Z,-3.05
2019-02-19T02:38:50.413Z,-3.02
2019-02-19T02:42:52.304Z,-3.06
2019-02-19T02:46:54.208Z,-3.05
2019-02-19T02:50:56.131Z,-3.06
2019-02-19T02:54:58.031Z,-3.11
2019-02-19T02:58:59.950Z,-3.12
2019-02-19T03:03:01.846Z,-3.08
2019-02-19T03:07:05.394Z,-3.17
2019-02-19T03:11:07.305Z,-3.23
2019-02-19T03:15:10.594Z,-3.23
2019-02-19T03:19:12.499Z,-3.29
2019-02-19T03:23:14.402Z,-3.31
2019-02-19T03:27:16.307Z,-3.35
2019-02-19T03:31:18.224Z,-3.35
2019-02-19T03:35:20.127Z,-3.37
2019-02-19T03:39:22.043Z,-3.35
2019-02-19T03:43:23.960Z,-3.38
2019-02-19T03:47:25.851Z,-3.42
2019-02-19T03:51:27.765Z,-3.43
2019-02-19T03:55:29.772Z,-3.41
2019-02-19T03:59:31.753Z,-3.46
2019-02-19T04:03:33.662Z,-3.54
2019-02-19T04:07:35.568Z,-3.60
2019-02-19T04:11:37.481Z,-3.64
2019-02-19T04:15:39.412Z,-3.62
2019-02-19T04:19:41.318Z,-3.63
2019-02-19T04:23:43.229Z,-3.67
2019-02-19T04:27:45.171Z,-3.69
2019-02-19T04:31:47.128Z,-3.63
2019-02-19T04:35:49.045Z,-3.61
2019-02-19T04:39:51.122Z,-3.67
2019-02-19T04:43:53.322Z,-3.74
2019-02-19T04:47:55.615Z,-3.72
2019-02-19T04:51:57.617Z,-3.71
2019-02-19T04:55:59.581Z,-3.78
2019-02-19T05:00:01.490Z,-3.78
2019-02-19T05:04:03.694Z,-3.76
2019-02-19T05:08:05.716Z,-3.84
2019-02-19T05:12:07.685Z,-3.87
2019-02-19T05:16:09.588Z,-3.90
2019-02-19T05:20:11.509Z,-3.91
2019-02-19T05:24:13.492Z,-3.88
2019-02-19T05:28:15.441Z,-3.91
2019-02-19T05:32:17.343Z,-3.94
2019-02-19T05:36:19.261Z,-3.91
2019-02-19T05:40:21.162Z,-3.88
2019-02-19T05:44:23.650Z,-3.91
2019-02-19T05:48:25.564Z,-3.89
2019-02-19T05:52:27.471Z,-3.94
2019-02-19T05:56:29.388Z,-3.94
2019-02-19T06:00:32.268Z,-3.96
2019-02-19T06:04:34.169Z,-3.95
2019-02-19T06:08:36.082Z,-3.96
2019-02-19T06:12:38.008Z,-3.91
2019-02-19T06:16:39.907Z,-3.95
2019-02-19T06:20:41.897Z,-4.01
2019-02-19T06:24:43.793Z,-3.96
2019-02-19T06:28:45.697Z,-4.00
2019-02-19T06:32:47.601Z,-3.96
2019-02-19T06:36:49.518Z,-3.95
2019-02-19T06:40:51.442Z,-3.95
2019-02-19T06:44:53.336Z,-3.93
2019-02-19T06:48:55.245Z,-3.86
2019-02-19T06:52:58.720Z,-3.85
2019-02-19T06:57:00.808Z,-3.82
2019-02-19T07:01:02.722Z,-3.76
2019-02-19T07:05:06.628Z,-3.70
2019-02-19T07:09:08.909Z,-3.60
2019-02-19T07:13:10.897Z,-3.54
2019-02-19T07:17:15.626Z,-3.48
2019-02-19T07:21:16.559Z,-3.41
2019-02-19T07:25:18.440Z,-3.28
2019-02-19T07:29:20.359Z,-3.17
2019-02-19T07:33:22.268Z,-3.04
2019-02-19T07:37:24.289Z,-2.91
2019-02-19T07:41:26.205Z,-2.79
2019-02-19T07:45:28.101Z,-2.64
2019-02-19T07:49:30.019Z,-2.47
2019-02-19T07:53:31.937Z,-2.28
2019-02-19T07:57:33.851Z,-2.05
2019-02-19T08:01:35.810Z,-1.86
2019-02-19T08:05:37.710Z,-1.69
2019-02-19T08:09:39.651Z,-1.51
2019-02-19T08:13:41.774Z,-1.34
2019-02-19T08:17:43.982Z,-1.14
2019-02-19T08:21:45.922Z,-0.97
2019-02-19T08:25:47.976Z,-0.82
2019-02-19T08:29:49.967Z,-0.68
2019-02-19T08:33:52.073Z,-0.58
2019-02-19T08:37:54.082Z,-0.44
2019-02-19T08:41:56.000Z,-0.27
2019-02-19T08:45:57.975Z,-0.09
2019-02-19T08:49:59.895Z,0.11
2019-02-19T08:54:01.804Z,0.28
2019-02-19T08:58:03.707Z,0.53
2019-02-19T09:02:05.627Z,0.48
2019-02-19T09:06:07.550Z,1.15
2019-02-19T09:10:12.342Z,1.43
2019-02-19T09:14:14.310Z,1.72
2019-02-19T09:18:16.516Z,2.01
2019-02-19T09:22:18.630Z,2.34
2019-02-19T09:26:20.737Z,2.59
2019-02-19T09:30:22.633Z,2.85
2019-02-19T09:34:24.792Z,3.09
2019-02-19T09:38:26.759Z,3.44
2019-02-19T09:42:28.649Z,3.83
2019-02-19T09:46:30.597Z,4.21
2019-02-19T09:50:32.494Z,4.55
2019-02-19T09:54:34.432Z,4.96
2019-02-19T09:58:36.535Z,5.37
2019-02-19T10:02:38.518Z,5.79
2019-02-19T10:06:40.693Z,6.27
2019-02-19T10:10:43.004Z,6.76
2019-02-19T10:14:44.961Z,7.38
2019-02-19T10:18:46.856Z,7.82
2019-02-19T10:22:48.801Z,7.93
2019-02-19T10:26:50.701Z,8.19
2019-02-19T10:30:52.616Z,8.57
2019-02-19T10:34:54.533Z,9.03
2019-02-19T10:38:56.426Z,9.42
2019-02-19T10:42:58.339Z,9.65
2019-02-19T10:47:00.216Z,9.95
2019-02-19T10:51:02.147Z,10.35
2019-02-19T10:55:04.318Z,10.58
2019-02-19T10:59:07.289Z,10.62
2019-02-19T11:03:09.544Z,10.56
2019-02-19T11:07:11.427Z,10.54
2019-02-19T11:11:13.401Z,10.17
2019-02-19T11:15:17.520Z,9.91
2019-02-19T11:19:19.581Z,9.72
2019-02-19T11:23:21.475Z,9.63
2019-02-19T11:27:23.920Z,9.64
2019-02-19T11:31:25.816Z,9.66
2019-02-19T11:35:27.784Z,9.74
2019-02-19T11:39:29.992Z,9.82
2019-02-19T11:43:33.133Z,9.90
2019-02-19T11:47:35.147Z,10.05
2019-02-19T11:51:37.048Z,10.28
2019-02-19T11:55:38.956Z,10.51
2019-02-19T11:59:40.867Z,10.41
2019-02-19T12:03:42.779Z,10.40
2019-02-19T12:07:44.679Z,10.35
2019-02-19T12:11:46.586Z,10.47
2019-02-19T12:15:48.556Z,10.47
2019-02-19T12:19:50.514Z,10.33
2019-02-19T12:23:52.498Z,10.17
2019-02-19T12:27:54.410Z,9.94
2019-02-19T12:31:56.302Z,9.76
2019-02-19T12:35:58.221Z,9.60
2019-02-19T12:40:00.109Z,9.45
2019-02-19T12:44:02.095Z,9.31
2019-02-19T12:48:03.994Z,9.25
2019-02-19T12:52:05.890Z,9.14
2019-02-19T12:56:07.857Z,9.19
2019-02-19T13:00:16.805Z,9.10
2019-02-19T13:04:18.690Z,9.10
2019-02-19T13:08:20.589Z,9.18
2019-02-19T13:12:22.503Z,9.24
2019-02-19T13:16:24.393Z,9.31
2019-02-19T13:20:26.276Z,9.36
2019-02-19T13:24:28.160Z,9.29
2019-02-19T13:28:30.051Z,9.35
2019-02-19T13:32:31.960Z,9.51
2019-02-19T13:36:33.859Z,9.67
2019-02-19T13:40:35.955Z,9.70
2019-02-19T13:44:37.849Z,9.69
2019-02-19T13:48:39.758Z,9.62
2019-02-19T13:52:43.290Z,9.37
2019-02-19T13:56:45.183Z,9.29
2019-02-19T14:00:48.721Z,9.30
2019-02-19T14:04:50.680Z,9.14
2019-02-19T14:08:52.571Z,9.16
2019-02-19T14:12:54.481Z,9.18
2019-02-19T14:16:57.761Z,8.99
2019-02-19T14:21:07.270Z,8.84
2019-02-19T14:25:14.350Z,8.84
2019-02-19T14:29:29.860Z,8.76
2019-02-19T14:33:51.807Z,8.68
2019-02-19T14:37:56.239Z,8.65
2019-02-19T14:42:01.831Z,8.52
2019-02-19T14:46:10.803Z,8.40
2019-02-19T14:50:31.106Z,8.39
2019-02-19T14:54:40.470Z,8.36
2019-02-19T14:58:59.703Z,8.38
2019-02-19T15:03:03.234Z,8.53
2019-02-19T15:07:18.692Z,8.41
2019-02-19T15:11:27.665Z,8.41
2019-02-19T15:15:40.210Z,8.37
2019-02-19T15:19:55.598Z,8.31
2019-02-19T15:24:18.890Z,8.29
2019-02-19T15:28:29.195Z,8.09
2019-02-19T15:32:42.676Z,8.09
2019-02-19T15:36:57.709Z,8.10
2019-02-19T15:41:13.019Z,8.19
2019-02-19T15:45:33.031Z,8.18
2019-02-19T15:49:48.517Z,8.10
2019-02-19T15:54:01.711Z,8.02
2019-02-19T15:58:05.257Z,7.93
2019-02-19T16:02:25.744Z,7.77
2019-02-19T16:06:29.271Z,7.80
2019-02-19T16:10:32.836Z,7.63
2019-02-19T16:14:52.502Z,7.56
2019-02-19T16:18:56.048Z,7.43
2019-02-19T16:22:57.746Z,7.46
2019-02-19T16:27:13.289Z,7.41
2019-02-19T16:31:25.979Z,7.28
2019-02-19T16:35:29.555Z,7.22
2019-02-19T16:39:41.894Z,7.11
2019-02-19T16:43:54.356Z,7.00
2019-02-19T16:48:03.339Z,6.98
2019-02-19T16:52:23.158Z,6.85
2019-02-19T16:56:36.962Z,6.79
2019-02-19T17:00:42.985Z,6.64
2019-02-19T17:05:02.683Z,6.59
2019-02-19T17:09:08.569Z,6.49
2019-02-19T17:13:21.404Z,6.39
2019-02-19T17:17:23.901Z,6.34
2019-02-19T17:21:30.102Z,5.81
2019-02-19T17:25:46.625Z,6.00
2019-02-19T17:30:06.278Z,5.96
2019-02-19T17:34:27.099Z,5.80
2019-02-19T17:38:30.622Z,5.73
2019-02-19T17:42:42.606Z,5.62
2019-02-19T17:47:02.250Z,5.49
2019-02-19T17:51:15.716Z,5.43
2019-02-19T17:55:35.720Z,5.27
2019-02-19T17:59:39.312Z,5.09
2019-02-19T18:03:48.878Z,4.82
2019-02-19T18:07:52.468Z,4.61
2019-02-19T18:11:56.007Z,4.45
2019-02-19T18:15:59.557Z,4.17
2019-02-19T18:20:01.887Z,3.98
2019-02-19T18:24:04.761Z,3.82
2019-02-19T18:28:06.626Z,3.58
2019-02-19T18:32:08.528Z,3.61
2019-02-19T18:36:10.421Z,3.44
2019-02-19T18:40:12.335Z,3.36
2019-02-19T18:44:14.260Z,3.18
2019-02-19T18:48:16.148Z,3.08
2019-02-19T18:52:18.048Z,2.90
2019-02-19T18:56:19.937Z,2.79
2019-02-19T19:00:21.839Z,2.62
2019-02-19T19:04:24.201Z,2.45
2019-02-19T19:08:26.164Z,2.36
2019-02-19T19:12:28.065Z,2.25
2019-02-19T19:16:29.981Z,2.20
2019-02-19T19:20:31.886Z,2.10
2019-02-19T19:24:33.832Z,1.98
2019-02-19T19:28:35.739Z,1.90
2019-02-19T19:32:37.664Z,1.79
2019-02-19T19:36:39.550Z,1.73
2019-02-19T19:40:41.452Z,1.64
2019-02-19T19:44:43.416Z,1.56
2019-02-19T19:48:45.966Z,1.50
2019-02-19T19:52:47.991Z,1.42
2019-02-19T19:56:49.893Z,1.34
2019-02-19T20:00:51.803Z,1.31
2019-02-19T20:04:53.681Z,1.17
2019-02-19T20:08:55.609Z,1.10
2019-02-19T20:12:57.561Z,1.06
2019-02-19T20:16:59.473Z,1.03
2019-02-19T20:21:01.368Z,0.99
2019-02-19T20:25:05.488Z,0.95
2019-02-19T20:29:07.457Z,0.93
2019-02-19T20:33:09.356Z,0.93
2019-02-19T20:37:11.234Z,0.90
2019-02-19T20:41:13.198Z,0.94
2019-02-19T20:45:15.469Z,0.97
2019-02-19T20:49:17.461Z,0.96
2019-02-19T20:53:19.424Z,0.97
2019-02-19T20:57:21.488Z,0.86
2019-02-19T21:01:24.308Z,0.86
2019-02-19T21:05:26.210Z,0.77
2019-02-19T21:09:28.089Z,0.67
2019-02-19T21:13:29.988Z,0.62
2019-02-19T21:17:31.881Z,0.56
2019-02-19T21:21:33.771Z,0.54
2019-02-19T21:25:35.666Z,0.49
2019-02-19T21:29:38.451Z,0.42
2019-02-19T21:33:40.346Z,0.36
2019-02-19T21:37:42.254Z,0.28
2019-02-19T21:41:44.570Z,0.27
2019-02-19T21:45:46.452Z,0.24
2019-02-19T21:49:48.370Z,0.19
2019-02-19T21:53:52.645Z,0.19
2019-02-19T21:57:54.534Z,0.09
2019-02-19T22:01:56.458Z,0.03
2019-02-19T22:05:58.420Z,-0.04
2019-02-19T22:10:01.399Z,-0.03
2019-02-19T22:14:03.905Z,-0.07
2019-02-19T22:18:05.805Z,-0.13
2019-02-19T22:22:09.434Z,-0.14
2019-02-19T22:26:11.376Z,-0.23
2019-02-19T22:30:13.431Z,-0.26
2019-02-19T22:34:15.408Z,-0.31
2019-02-19T22:38:17.794Z,-0.33
2019-02-19T22:42:19.718Z,-0.35
2019-02-19T22:46:21.636Z,-0.42
2019-02-19T22:50:24.325Z,-0.53
2019-02-19T22:54:36.468Z,-0.54
2019-02-19T22:58:38.381Z,-0.55
2019-02-19T23:02:40.476Z,-0.59
2019-02-19T23:06:43.359Z,-0.65
2019-02-19T23:10:45.267Z,-0.64
2019-02-19T23:14:47.180Z,-0.67
2019-02-19T23:18:49.089Z,-0.73
2019-02-19T23:22:51.013Z,-0.75
2019-02-19T23:26:52.924Z,-0.74
2019-02-19T23:30:54.833Z,-0.75
2019-02-19T23:35:07.032Z,-0.77
2019-02-19T23:39:09.367Z,-0.77
2019-02-19T23:43:11.342Z,-0.85
2019-02-19T23:47:13.262Z,-0.90
2019-02-19T23:51:15.430Z,-0.91
2019-02-19T23:55:17.339Z,-0.95
2019-02-19T23:59:19.258Z,-0.97
